sensor_id;sensor_type;location;lat;lon;timestamp;pressure;altitude;pressure_sealevel;temperature;humidity
11339;BME280;5724;42.684;23.252;2023-12-07T00:01:54;93981.66;;;3.14;100.00
11339;BME280;5724;42.684;23.252;2023-12-07T00:04:40;93983.56;;;3.22;100.00
11339;BME280;5724;42.684;23.252;2023-12-07T00:07:25;93990.88;;;3.22;100.00
11339;BME280;5724;42.684;23.252;2023-12-07T00:10:12;93986.72;;;3.24;100.00
11339;BME280;5724;42.684;23.252;2023-12-07T00:12:57;93988.63;;;3.24;100.00
11339;BME280;5724;42.684;23.252;2023-12-07T00:15:43;93989.09;;;3.26;100.00
11339;BME280;5724;42.684;23.252;2023-12-07T00:18:29;93990.22;;;3.16;100.00
11339;BME280;5724;42.684;23.252;2023-12-07T00:21:15;93986.59;;;3.12;100.00
11339;BME280;5724;42.684;23.252;2023-12-07T00:24:00;93988.97;;;3.13;100.00
11339;BME280;5724;42.684;23.252;2023-12-07T00:26:48;93981.97;;;3.21;100.00
11339;BME280;5724;42.684;23.252;2023-12-07T00:29:37;93988.75;;;3.36;100.00
11339;BME280;5724;42.684;23.252;2023-12-07T00:32:23;93996.03;;;3.44;100.00
11339;BME280;5724;42.684;23.252;2023-12-07T00:35:12;93998.38;;;3.54;100.00
11339;BME280;5724;42.684;23.252;2023-12-07T00:37:59;93992.53;;;3.43;100.00
11339;BME280;5724;42.684;23.252;2023-12-07T00:40:44;93998.41;;;3.45;100.00
11339;BME280;5724;42.684;23.252;2023-12-07T00:43:30;93988.59;;;3.41;100.00
11339;BME280;5724;42.684;23.252;2023-12-07T00:46:16;93990.97;;;3.42;100.00
11339;BME280;5724;42.684;23.252;2023-12-07T00:49:02;93991.72;;;3.52;100.00
11339;BME280;5724;42.684;23.252;2023-12-07T00:51:47;93983.63;;;3.52;100.00
11339;BME280;5724;42.684;23.252;2023-12-07T00:54:33;93975.22;;;3.44;100.00
11339;BME280;5724;42.684;23.252;2023-12-07T00:57:19;93986.78;;;3.54;100.00
11339;BME280;5724;42.684;23.252;2023-12-07T01:00:06;93982.50;;;3.53;100.00
11339;BME280;5724;42.684;23.252;2023-12-07T01:02:51;93984.41;;;3.61;100.00
11339;BME280;5724;42.684;23.252;2023-12-07T01:05:37;93978.66;;;3.62;100.00
11339;BME280;5724;42.684;23.252;2023-12-07T01:08:23;93977.97;;;3.74;100.00
11339;BME280;5724;42.684;23.252;2023-12-07T01:11:09;93976.84;;;3.75;100.00
11339;BME280;5724;42.684;23.252;2023-12-07T01:13:55;93972.53;;;3.83;100.00
11339;BME280;5724;42.684;23.252;2023-12-07T01:16:40;93984.97;;;3.75;100.00
11339;BME280;5724;42.684;23.252;2023-12-07T01:19:26;93980.22;;;3.72;100.00
11339;BME280;5724;42.684;23.252;2023-12-07T01:22:12;93967.16;;;3.74;100.00
11339;BME280;5724;42.684;23.252;2023-12-07T01:24:54;93972.72;;;3.78;100.00
11339;BME280;5724;42.684;23.252;2023-12-07T01:27:20;93970.78;;;3.87;100.00
11339;BME280;5724;42.684;23.252;2023-12-07T01:29:45;93966.66;;;3.81;100.00
11339;BME280;5724;42.684;23.252;2023-12-07T01:32:31;93970.00;;;3.86;100.00
11339;BME280;5724;42.684;23.252;2023-12-07T01:35:17;93979.03;;;3.90;100.00
11339;BME280;5724;42.684;23.252;2023-12-07T01:38:03;93973.03;;;3.76;100.00
11339;BME280;5724;42.684;23.252;2023-12-07T01:40:49;93979.69;;;3.49;100.00
11339;BME280;5724;42.684;23.252;2023-12-07T01:43:35;93970.66;;;3.28;100.00
11339;BME280;5724;42.684;23.252;2023-12-07T01:46:21;93971.19;;;3.12;100.00
11339;BME280;5724;42.684;23.252;2023-12-07T01:49:07;93967.69;;;3.12;100.00
11339;BME280;5724;42.684;23.252;2023-12-07T01:51:53;93969.44;;;3.08;100.00
11339;BME280;5724;42.684;23.252;2023-12-07T01:54:39;93965.91;;;3.25;100.00
11339;BME280;5724;42.684;23.252;2023-12-07T01:57:25;93971.47;;;3.28;100.00
11339;BME280;5724;42.684;23.252;2023-12-07T02:00:13;93959.53;;;3.38;100.00
11339;BME280;5724;42.684;23.252;2023-12-07T02:03:00;93967.44;;;3.43;100.00
11339;BME280;5724;42.684;23.252;2023-12-07T02:05:48;93977.00;;;3.40;100.00
11339;BME280;5724;42.684;23.252;2023-12-07T02:08:35;93970.78;;;3.49;100.00
11339;BME280;5724;42.684;23.252;2023-12-07T02:11:21;93965.34;;;3.57;100.00
11339;BME280;5724;42.684;23.252;2023-12-07T02:14:07;93962.19;;;3.47;100.00
11339;BME280;5724;42.684;23.252;2023-12-07T02:17:08;93965.50;;;3.61;100.00
11339;BME280;5724;42.684;23.252;2023-12-07T02:23:11;93957.69;;;3.68;100.00
11339;BME280;5724;42.684;23.252;2023-12-07T02:29:34;93960.19;;;3.73;100.00
11339;BME280;5724;42.684;23.252;2023-12-07T02:32:20;93953.50;;;3.79;100.00
11339;BME280;5724;42.684;23.252;2023-12-07T02:35:07;93960.59;;;3.45;100.00
11339;BME280;5724;42.684;23.252;2023-12-07T02:37:54;93960.00;;;3.40;100.00
11339;BME280;5724;42.684;23.252;2023-12-07T02:40:40;93957.34;;;3.23;100.00
11339;BME280;5724;42.684;23.252;2023-12-07T02:43:27;93947.81;;;3.16;100.00
11339;BME280;5724;42.684;23.252;2023-12-07T02:46:13;93953.22;;;3.16;100.00
11339;BME280;5724;42.684;23.252;2023-12-07T02:48:58;93941.00;;;3.19;100.00
11339;BME280;5724;42.684;23.252;2023-12-07T02:51:44;93953.09;;;3.13;100.00
11339;BME280;5724;42.684;23.252;2023-12-07T02:54:30;93956.25;;;3.15;100.00
11339;BME280;5724;42.684;23.252;2023-12-07T02:57:16;93944.19;;;3.12;100.00
11339;BME280;5724;42.684;23.252;2023-12-07T03:00:03;93950.69;;;3.20;100.00
11339;BME280;5724;42.684;23.252;2023-12-07T03:02:55;93947.81;;;3.16;100.00
11339;BME280;5724;42.684;23.252;2023-12-07T03:05:41;93956.72;;;3.08;100.00
11339;BME280;5724;42.684;23.252;2023-12-07T03:08:27;93952.19;;;2.92;100.00
11339;BME280;5724;42.684;23.252;2023-12-07T03:11:13;93948.97;;;3.07;100.00
11339;BME280;5724;42.684;23.252;2023-12-07T03:13:59;93956.59;;;2.96;100.00
11339;BME280;5724;42.684;23.252;2023-12-07T03:16:45;93944.72;;;2.88;100.00
11339;BME280;5724;42.684;23.252;2023-12-07T03:19:31;93953.78;;;2.75;100.00
11339;BME280;5724;42.684;23.252;2023-12-07T03:22:17;93959.03;;;2.80;100.00
11339;BME280;5724;42.684;23.252;2023-12-07T03:25:03;93962.97;;;2.83;100.00
11339;BME280;5724;42.684;23.252;2023-12-07T03:27:49;93971.53;;;2.85;100.00
11339;BME280;5724;42.684;23.252;2023-12-07T03:30:34;93962.31;;;2.95;100.00
11339;BME280;5724;42.684;23.252;2023-12-07T03:33:20;93969.00;;;2.88;100.00
11339;BME280;5724;42.684;23.252;2023-12-07T03:36:06;93967.91;;;2.90;100.00
11339;BME280;5724;42.684;23.252;2023-12-07T03:38:52;93977.53;;;3.08;100.00
11339;BME280;5724;42.684;23.252;2023-12-07T03:41:38;93975.94;;;3.15;100.00
11339;BME280;5724;42.684;23.252;2023-12-07T03:44:24;93974.19;;;3.20;100.00
11339;BME280;5724;42.684;23.252;2023-12-07T03:47:12;93973.75;;;3.09;100.00
11339;BME280;5724;42.684;23.252;2023-12-07T03:49:57;93977.03;;;3.23;100.00
11339;BME280;5724;42.684;23.252;2023-12-07T03:52:43;93979.25;;;3.30;100.00
11339;BME280;5724;42.684;23.252;2023-12-07T03:55:29;93975.88;;;3.41;100.00
11339;BME280;5724;42.684;23.252;2023-12-07T03:58:15;93970.47;;;3.41;100.00
11339;BME280;5724;42.684;23.252;2023-12-07T04:01:01;93977.78;;;3.50;100.00
11339;BME280;5724;42.684;23.252;2023-12-07T04:03:46;93972.94;;;3.64;100.00
11339;BME280;5724;42.684;23.252;2023-12-07T04:06:32;93982.38;;;3.49;100.00
11339;BME280;5724;42.684;23.252;2023-12-07T04:09:19;93976.31;;;3.52;100.00
11339;BME280;5724;42.684;23.252;2023-12-07T04:12:05;93982.69;;;3.48;100.00
11339;BME280;5724;42.684;23.252;2023-12-07T04:14:51;93973.84;;;3.38;100.00
11339;BME280;5724;42.684;23.252;2023-12-07T04:17:40;93973.94;;;3.51;100.00
11339;BME280;5724;42.684;23.252;2023-12-07T04:20:25;93985.09;;;3.40;100.00
11339;BME280;5724;42.684;23.252;2023-12-07T04:23:11;93985.41;;;3.48;100.00
11339;BME280;5724;42.684;23.252;2023-12-07T04:25:57;93982.41;;;3.40;100.00
11339;BME280;5724;42.684;23.252;2023-12-07T04:28:43;93991.72;;;3.52;100.00
11339;BME280;5724;42.684;23.252;2023-12-07T04:31:29;93995.91;;;3.40;100.00
11339;BME280;5724;42.684;23.252;2023-12-07T04:34:14;93994.31;;;3.39;100.00
11339;BME280;5724;42.684;23.252;2023-12-07T04:37:00;93997.47;;;3.41;100.00
11339;BME280;5724;42.684;23.252;2023-12-07T04:39:46;93992.69;;;3.47;100.00
11339;BME280;5724;42.684;23.252;2023-12-07T04:42:32;94007.44;;;3.58;100.00
11339;BME280;5724;42.684;23.252;2023-12-07T04:45:18;94007.91;;;3.60;100.00
11339;BME280;5724;42.684;23.252;2023-12-07T04:48:04;94003.44;;;3.64;100.00
11339;BME280;5724;42.684;23.252;2023-12-07T04:50:50;94004.72;;;3.67;100.00
11339;BME280;5724;42.684;23.252;2023-12-07T04:53:36;94003.44;;;3.64;100.00
11339;BME280;5724;42.684;23.252;2023-12-07T04:56:22;94008.22;;;3.67;100.00
11339;BME280;5724;42.684;23.252;2023-12-07T04:59:09;94010.63;;;3.60;100.00
11339;BME280;5724;42.684;23.252;2023-12-07T05:01:55;94009.38;;;3.49;100.00
11339;BME280;5724;42.684;23.252;2023-12-07T05:04:41;94009.56;;;3.35;100.00
11339;BME280;5724;42.684;23.252;2023-12-07T05:07:27;94007.38;;;3.20;100.00
11339;BME280;5724;42.684;23.252;2023-12-07T05:10:13;94010.88;;;3.29;100.00
11339;BME280;5724;42.684;23.252;2023-12-07T05:12:58;94017.84;;;3.30;100.00
11339;BME280;5724;42.684;23.252;2023-12-07T05:15:44;94015.63;;;3.32;100.00
11339;BME280;5724;42.684;23.252;2023-12-07T05:18:32;94012.59;;;3.34;100.00
11339;BME280;5724;42.684;23.252;2023-12-07T05:21:18;94012.28;;;3.27;100.00
11339;BME280;5724;42.684;23.252;2023-12-07T05:24:03;94015.94;;;3.39;100.00
11339;BME280;5724;42.684;23.252;2023-12-07T05:26:49;94020.81;;;3.37;100.00
11339;BME280;5724;42.684;23.252;2023-12-07T05:29:35;94029.44;;;3.39;100.00
11339;BME280;5724;42.684;23.252;2023-12-07T05:32:21;94031.16;;;3.44;100.00
11339;BME280;5724;42.684;23.252;2023-12-07T05:35:07;94035.75;;;3.43;100.00
11339;BME280;5724;42.684;23.252;2023-12-07T05:37:53;94030.19;;;3.49;100.00
11339;BME280;5724;42.684;23.252;2023-12-07T05:40:39;94025.75;;;3.44;100.00
11339;BME280;5724;42.684;23.252;2023-12-07T05:43:25;94032.41;;;3.47;100.00
11339;BME280;5724;42.684;23.252;2023-12-07T05:46:11;93999.75;;;3.22;100.00
11339;BME280;5724;42.684;23.252;2023-12-07T05:48:57;94033.03;;;3.52;100.00
11339;BME280;5724;42.684;23.252;2023-12-07T05:51:44;94033.66;;;3.58;100.00
11339;BME280;5724;42.684;23.252;2023-12-07T05:54:31;94039.84;;;3.67;100.00
11339;BME280;5724;42.684;23.252;2023-12-07T05:57:17;94048.22;;;3.74;100.00
11339;BME280;5724;42.684;23.252;2023-12-07T06:00:04;94045.66;;;3.86;100.00
11339;BME280;5724;42.684;23.252;2023-12-07T06:02:53;94045.50;;;3.83;100.00
11339;BME280;5724;42.684;23.252;2023-12-07T06:05:40;94046.13;;;3.88;100.00
11339;BME280;5724;42.684;23.252;2023-12-07T06:08:27;94051.34;;;3.93;100.00
11339;BME280;5724;42.684;23.252;2023-12-07T06:11:13;94049.94;;;3.87;100.00
11339;BME280;5724;42.684;23.252;2023-12-07T06:13:58;94053.72;;;3.95;100.00
11339;BME280;5724;42.684;23.252;2023-12-07T06:16:45;94052.31;;;3.89;100.00
11339;BME280;5724;42.684;23.252;2023-12-07T06:19:31;94053.13;;;3.89;100.00
11339;BME280;5724;42.684;23.252;2023-12-07T06:22:17;94058.09;;;3.79;100.00
11339;BME280;5724;42.684;23.252;2023-12-07T06:25:03;94048.19;;;3.83;100.00
11339;BME280;5724;42.684;23.252;2023-12-07T06:27:49;94054.22;;;3.88;100.00
11339;BME280;5724;42.684;23.252;2023-12-07T06:30:35;94052.22;;;3.77;100.00
11339;BME280;5724;42.684;23.252;2023-12-07T06:33:21;94057.53;;;3.94;100.00
11339;BME280;5724;42.684;23.252;2023-12-07T06:36:07;94059.19;;;3.86;100.00
11339;BME280;5724;42.684;23.252;2023-12-07T06:38:53;94065.22;;;3.74;100.00
11339;BME280;5724;42.684;23.252;2023-12-07T06:41:40;94063.66;;;3.65;100.00
11339;BME280;5724;42.684;23.252;2023-12-07T06:44:26;94063.50;;;3.70;100.00
11339;BME280;5724;42.684;23.252;2023-12-07T06:47:12;94071.78;;;3.65;100.00
11339;BME280;5724;42.684;23.252;2023-12-07T06:49:58;94069.41;;;3.46;100.00
11339;BME280;5724;42.684;23.252;2023-12-07T06:52:44;94079.72;;;3.61;100.00
11339;BME280;5724;42.684;23.252;2023-12-07T06:55:30;94076.59;;;3.51;100.00
11339;BME280;5724;42.684;23.252;2023-12-07T06:58:16;94070.41;;;3.41;100.00
11339;BME280;5724;42.684;23.252;2023-12-07T07:01:02;94079.75;;;3.35;100.00
11339;BME280;5724;42.684;23.252;2023-12-07T07:03:48;94075.47;;;3.52;100.00
11339;BME280;5724;42.684;23.252;2023-12-07T07:06:33;94079.09;;;3.56;100.00
11339;BME280;5724;42.684;23.252;2023-12-07T07:09:20;94081.34;;;3.36;100.00
11339;BME280;5724;42.684;23.252;2023-12-07T07:12:06;94086.28;;;3.43;100.00
11339;BME280;5724;42.684;23.252;2023-12-07T07:14:53;94078.81;;;3.49;100.00
11339;BME280;5724;42.684;23.252;2023-12-07T07:17:39;94087.69;;;3.58;100.00
11339;BME280;5724;42.684;23.252;2023-12-07T07:20:26;94086.75;;;3.36;100.00
11339;BME280;5724;42.684;23.252;2023-12-07T07:23:12;94086.91;;;3.57;100.00
11339;BME280;5724;42.684;23.252;2023-12-07T07:25:57;94091.03;;;3.37;100.00
11339;BME280;5724;42.684;23.252;2023-12-07T07:28:44;94089.31;;;3.33;100.00
11339;BME280;5724;42.684;23.252;2023-12-07T07:31:29;94092.00;;;3.24;100.00
11339;BME280;5724;42.684;23.252;2023-12-07T07:34:15;94091.53;;;3.13;100.00
11339;BME280;5724;42.684;23.252;2023-12-07T07:37:02;94095.03;;;3.31;100.00
11339;BME280;5724;42.684;23.252;2023-12-07T07:39:48;94093.78;;;3.20;100.00
11339;BME280;5724;42.684;23.252;2023-12-07T07:42:34;94101.69;;;3.08;100.00
11339;BME280;5724;42.684;23.252;2023-12-07T07:45:20;94099.97;;;3.03;100.00
11339;BME280;5724;42.684;23.252;2023-12-07T07:48:06;94106.28;;;2.99;100.00
11339;BME280;5724;42.684;23.252;2023-12-07T07:50:52;94102.50;;;2.91;100.00
11339;BME280;5724;42.684;23.252;2023-12-07T07:53:37;94113.41;;;2.77;100.00
11339;BME280;5724;42.684;23.252;2023-12-07T07:56:23;94114.97;;;2.70;100.00
11339;BME280;5724;42.684;23.252;2023-12-07T07:59:09;94118.81;;;2.77;100.00
11339;BME280;5724;42.684;23.252;2023-12-07T08:01:56;94125.63;;;2.66;100.00
11339;BME280;5724;42.684;23.252;2023-12-07T08:04:41;94130.81;;;2.54;100.00
11339;BME280;5724;42.684;23.252;2023-12-07T08:07:27;94130.03;;;2.53;100.00
11339;BME280;5724;42.684;23.252;2023-12-07T08:10:13;94137.66;;;2.51;100.00
11339;BME280;5724;42.684;23.252;2023-12-07T08:12:59;94126.91;;;2.20;100.00
11339;BME280;5724;42.684;23.252;2023-12-07T08:15:45;94141.56;;;2.37;100.00
11339;BME280;5724;42.684;23.252;2023-12-07T08:18:30;94154.03;;;2.24;100.00
11339;BME280;5724;42.684;23.252;2023-12-07T08:21:23;94143.56;;;2.22;100.00
11339;BME280;5724;42.684;23.252;2023-12-07T08:24:09;94141.31;;;2.16;100.00
11339;BME280;5724;42.684;23.252;2023-12-07T08:26:56;94155.97;;;2.01;100.00
11339;BME280;5724;42.684;23.252;2023-12-07T08:29:42;94147.88;;;2.01;100.00
11339;BME280;5724;42.684;23.252;2023-12-07T08:32:28;94144.59;;;2.04;100.00
11339;BME280;5724;42.684;23.252;2023-12-07T08:35:14;94152.31;;;1.97;100.00
11339;BME280;5724;42.684;23.252;2023-12-07T08:38:00;94163.53;;;1.90;100.00
11339;BME280;5724;42.684;23.252;2023-12-07T08:40:46;94155.28;;;1.87;100.00
11339;BME280;5724;42.684;23.252;2023-12-07T08:43:33;94168.91;;;1.90;100.00
11339;BME280;5724;42.684;23.252;2023-12-07T08:46:19;94169.66;;;1.82;100.00
11339;BME280;5724;42.684;23.252;2023-12-07T08:49:05;94167.28;;;1.81;100.00
11339;BME280;5724;42.684;23.252;2023-12-07T08:51:52;94168.91;;;1.90;100.00
11339;BME280;5724;42.684;23.252;2023-12-07T08:54:38;94165.75;;;1.88;100.00
11339;BME280;5724;42.684;23.252;2023-12-07T08:57:24;94169.97;;;1.81;100.00
11339;BME280;5724;42.684;23.252;2023-12-07T09:00:10;94173.22;;;1.69;100.00
11339;BME280;5724;42.684;23.252;2023-12-07T09:02:58;94170.69;;;1.72;100.00
11339;BME280;5724;42.684;23.252;2023-12-07T09:05:44;94173.53;;;1.67;100.00
11339;BME280;5724;42.684;23.252;2023-12-07T09:08:30;94176.59;;;1.75;100.00
11339;BME280;5724;42.684;23.252;2023-12-07T09:11:17;94165.63;;;1.71;100.00
11339;BME280;5724;42.684;23.252;2023-12-07T09:14:02;94166.34;;;1.63;100.00
11339;BME280;5724;42.684;23.252;2023-12-07T09:16:48;94168.16;;;1.67;100.00
11339;BME280;5724;42.684;23.252;2023-12-07T09:19:34;94179.16;;;1.57;100.00
11339;BME280;5724;42.684;23.252;2023-12-07T09:22:20;94173.53;;;1.45;100.00
11339;BME280;5724;42.684;23.252;2023-12-07T09:25:07;94160.09;;;1.45;100.00
11339;BME280;5724;42.684;23.252;2023-12-07T09:27:55;94172.78;;;1.53;100.00
11339;BME280;5724;42.684;23.252;2023-12-07T09:30:42;94164.47;;;1.41;100.00
11339;BME280;5724;42.684;23.252;2023-12-07T09:33:27;94166.06;;;1.42;100.00
11339;BME280;5724;42.684;23.252;2023-12-07T09:36:16;94167.84;;;1.47;100.00
11339;BME280;5724;42.684;23.252;2023-12-07T09:39:04;94175.16;;;1.32;100.00
11339;BME280;5724;42.684;23.252;2023-12-07T09:41:50;94165.09;;;1.38;100.00
11339;BME280;5724;42.684;23.252;2023-12-07T09:44:36;94178.00;;;1.27;100.00
11339;BME280;5724;42.684;23.252;2023-12-07T09:47:22;94172.59;;;1.27;100.00
11339;BME280;5724;42.684;23.252;2023-12-07T09:50:08;94169.78;;;1.32;100.00
11339;BME280;5724;42.684;23.252;2023-12-07T09:52:57;94174.50;;;1.27;100.00
11339;BME280;5724;42.684;23.252;2023-12-07T09:55:43;94168.50;;;1.30;100.00
11339;BME280;5724;42.684;23.252;2023-12-07T09:58:29;94175.72;;;1.21;100.00
11339;BME280;5724;42.684;23.252;2023-12-07T10:01:14;94166.38;;;1.04;100.00
11339;BME280;5724;42.684;23.252;2023-12-07T10:04:19;94181.78;;;0.90;100.00
11339;BME280;5724;42.684;23.252;2023-12-07T10:07:08;94178.78;;;0.92;100.00
11339;BME280;5724;42.684;23.252;2023-12-07T10:09:54;94169.34;;;0.80;100.00
11339;BME280;5724;42.684;23.252;2023-12-07T10:12:56;94183.59;;;0.81;100.00
11339;BME280;5724;42.684;23.252;2023-12-07T10:15:44;94170.75;;;0.78;100.00
11339;BME280;5724;42.684;23.252;2023-12-07T10:18:30;94179.81;;;0.68;100.00
11339;BME280;5724;42.684;23.252;2023-12-07T10:21:15;94169.47;;;0.62;100.00
11339;BME280;5724;42.684;23.252;2023-12-07T10:24:01;94162.59;;;0.55;100.00
11339;BME280;5724;42.684;23.252;2023-12-07T10:26:49;94175.44;;;0.45;100.00
11339;BME280;5724;42.684;23.252;2023-12-07T10:29:35;94153.75;;;0.27;100.00
11339;BME280;5724;42.684;23.252;2023-12-07T10:32:21;94174.84;;;0.34;100.00
11339;BME280;5724;42.684;23.252;2023-12-07T10:35:08;94160.91;;;0.32;100.00
11339;BME280;5724;42.684;23.252;2023-12-07T10:37:55;94160.91;;;0.32;100.00
11339;BME280;5724;42.684;23.252;2023-12-07T10:40:41;94180.22;;;0.34;100.00
11339;BME280;5724;42.684;23.252;2023-12-07T10:43:27;94177.91;;;0.27;100.00
11339;BME280;5724;42.684;23.252;2023-12-07T10:46:15;94169.47;;;0.20;100.00
11339;BME280;5724;42.684;23.252;2023-12-07T10:49:04;94160.69;;;0.28;100.00
11339;BME280;5724;42.684;23.252;2023-12-07T10:52:03;94176.03;;;0.42;100.00
11339;BME280;5724;42.684;23.252;2023-12-07T10:55:10;94166.19;;;0.37;100.00
11339;BME280;5724;42.684;23.252;2023-12-07T10:57:59;94158.72;;;0.20;100.00
11339;BME280;5724;42.684;23.252;2023-12-07T11:00:46;94160.63;;;0.20;100.00
11339;BME280;5724;42.684;23.252;2023-12-07T11:03:32;94172.75;;;0.31;100.00
11339;BME280;5724;42.684;23.252;2023-12-07T11:06:19;94171.44;;;0.28;100.00
11339;BME280;5724;42.684;23.252;2023-12-07T11:09:09;94189.38;;;0.33;100.00
11339;BME280;5724;42.684;23.252;2023-12-07T11:12:10;94175.81;;;0.38;100.00
11339;BME280;5724;42.684;23.252;2023-12-07T11:15:01;94170.56;;;0.33;100.00
11339;BME280;5724;42.684;23.252;2023-12-07T11:17:52;94160.69;;;0.28;100.00
11339;BME280;5724;42.684;23.252;2023-12-07T11:20:44;94174.06;;;0.34;100.00
11339;BME280;5724;42.684;23.252;2023-12-07T11:23:31;94166.78;;;0.34;100.00
11339;BME280;5724;42.684;23.252;2023-12-07T11:26:20;94172.44;;;0.46;100.00
11339;BME280;5724;42.684;23.252;2023-12-07T11:29:06;94166.50;;;0.49;100.00
11339;BME280;5724;42.684;23.252;2023-12-07T11:31:55;94161.59;;;0.51;100.00
11339;BME280;5724;42.684;23.252;2023-12-07T11:34:43;94176.50;;;0.57;100.00
11339;BME280;5724;42.684;23.252;2023-12-07T11:38:09;94161.88;;;0.64;100.00
11339;BME280;5724;42.684;23.252;2023-12-07T11:40:57;94154.63;;;0.64;100.00
11339;BME280;5724;42.684;23.252;2023-12-07T11:43:44;94152.13;;;0.68;100.00
11339;BME280;5724;42.684;23.252;2023-12-07T11:46:31;94162.72;;;0.50;100.00
11339;BME280;5724;42.684;23.252;2023-12-07T11:49:17;94142.56;;;0.62;100.00
11339;BME280;5724;42.684;23.252;2023-12-07T11:52:17;94147.16;;;0.61;100.00
11339;BME280;5724;42.684;23.252;2023-12-07T11:55:04;94148.94;;;0.66;100.00
11339;BME280;5724;42.684;23.252;2023-12-07T11:57:50;94150.72;;;0.56;100.00
11339;BME280;5724;42.684;23.252;2023-12-07T12:00:36;94153.13;;;0.72;100.00
11339;BME280;5724;42.684;23.252;2023-12-07T12:03:26;94150.91;;;0.74;100.00
11339;BME280;5724;42.684;23.252;2023-12-07T12:06:12;94157.31;;;0.64;100.00
11339;BME280;5724;42.684;23.252;2023-12-07T12:08:58;94155.31;;;0.70;100.00
11339;BME280;5724;42.684;23.252;2023-12-07T12:11:47;94160.09;;;0.73;100.00
11339;BME280;5724;42.684;23.252;2023-12-07T12:14:33;94148.53;;;0.72;100.00
11339;BME280;5724;42.684;23.252;2023-12-07T12:17:19;94146.94;;;0.57;100.00
11339;BME280;5724;42.684;23.252;2023-12-07T12:20:05;94153.28;;;0.75;100.00
11339;BME280;5724;42.684;23.252;2023-12-07T12:22:52;94151.63;;;0.79;100.00
11339;BME280;5724;42.684;23.252;2023-12-07T12:25:41;94148.63;;;0.81;100.00
11339;BME280;5724;42.684;23.252;2023-12-07T12:28:27;94149.81;;;0.75;100.00
11339;BME280;5724;42.684;23.252;2023-12-07T12:31:14;94150.59;;;0.75;100.00
11339;BME280;5724;42.684;23.252;2023-12-07T12:34:05;94153.28;;;0.75;100.00
11339;BME280;5724;42.684;23.252;2023-12-07T12:36:56;94172.16;;;0.62;100.00
11339;BME280;5724;42.684;23.252;2023-12-07T12:39:42;94164.09;;;0.62;100.00
11339;BME280;5724;42.684;23.252;2023-12-07T12:42:27;94174.13;;;0.56;100.00
11339;BME280;5724;42.684;23.252;2023-12-07T12:45:14;94165.47;;;0.45;100.00
11339;BME280;5724;42.684;23.252;2023-12-07T12:48:00;94161.31;;;0.39;100.00
11339;BME280;5724;42.684;23.252;2023-12-07T12:50:46;94156.22;;;0.38;100.00
11339;BME280;5724;42.684;23.252;2023-12-07T12:53:32;94170.56;;;0.33;100.00
11339;BME280;5724;42.684;23.252;2023-12-07T12:56:18;94176.94;;;0.37;100.00
11339;BME280;5724;42.684;23.252;2023-12-07T12:59:06;94178.25;;;0.40;100.00
11339;BME280;5724;42.684;23.252;2023-12-07T13:01:54;94169.16;;;0.36;100.00
11339;BME280;5724;42.684;23.252;2023-12-07T13:04:40;94175.03;;;0.24;100.00
11339;BME280;5724;42.684;23.252;2023-12-07T13:07:26;94184.09;;;0.28;100.00
11339;BME280;5724;42.684;23.252;2023-12-07T13:10:12;94200.59;;;0.08;100.00
11339;BME280;5724;42.684;23.252;2023-12-07T13:12:57;94187.56;;;0.15;100.00
11339;BME280;5724;42.684;23.252;2023-12-07T13:15:43;94192.75;;;0.11;100.00
11339;BME280;5724;42.684;23.252;2023-12-07T13:18:29;94199.69;;;-0.02;100.00
11339;BME280;5724;42.684;23.252;2023-12-07T13:21:15;94185.16;;;-0.01;100.00
11339;BME280;5724;42.684;23.252;2023-12-07T13:24:01;94199.47;;;-0.05;100.00
11339;BME280;5724;42.684;23.252;2023-12-07T13:26:50;94195.91;;;-0.01;100.00
11339;BME280;5724;42.684;23.252;2023-12-07T13:29:36;94195.31;;;0.03;100.00
11339;BME280;5724;42.684;23.252;2023-12-07T13:32:22;94200.78;;;-0.03;100.00
11339;BME280;5724;42.684;23.252;2023-12-07T13:35:09;94197.97;;;-0.11;100.00
11339;BME280;5724;42.684;23.252;2023-12-07T13:37:55;94196.19;;;-0.16;100.00
11339;BME280;5724;42.684;23.252;2023-12-07T13:40:41;94205.81;;;-0.15;100.00
11339;BME280;5724;42.684;23.252;2023-12-07T13:43:27;94206.03;;;-0.11;100.00
11339;BME280;5724;42.684;23.252;2023-12-07T13:46:13;94209.81;;;-0.12;100.00
11339;BME280;5724;42.684;23.252;2023-12-07T13:48:59;94207.59;;;-0.24;100.00
11339;BME280;5724;42.684;23.252;2023-12-07T13:51:44;94212.66;;;-0.22;100.00
11339;BME280;5724;42.684;23.252;2023-12-07T13:54:32;94220.84;;;-0.14;100.00
11339;BME280;5724;42.684;23.252;2023-12-07T13:57:19;94221.25;;;-0.39;100.00
11339;BME280;5724;42.684;23.252;2023-12-07T14:00:06;94204.97;;;-0.62;100.00
11339;BME280;5724;42.684;23.252;2023-12-07T14:02:52;94218.53;;;-0.72;100.00
11339;BME280;5724;42.684;23.252;2023-12-07T14:05:38;94226.59;;;-0.72;100.00
11339;BME280;5724;42.684;23.252;2023-12-07T14:08:27;94221.72;;;-0.70;100.00
11339;BME280;5724;42.684;23.252;2023-12-07T14:11:13;94229.28;;;-0.72;100.00
11339;BME280;5724;42.684;23.252;2023-12-07T14:13:59;94235.94;;;-0.69;100.00
11339;BME280;5724;42.684;23.252;2023-12-07T14:16:45;94229.84;;;-0.75;100.00
11339;BME280;5724;42.684;23.252;2023-12-07T14:19:31;94226.88;;;-0.73;100.00
11339;BME280;5724;42.684;23.252;2023-12-07T14:22:17;94235.94;;;-0.69;100.00
11339;BME280;5724;42.684;23.252;2023-12-07T14:25:03;94236.03;;;-0.74;100.00
11339;BME280;5724;42.684;23.252;2023-12-07T14:27:50;94244.13;;;-0.61;100.00
11339;BME280;5724;42.684;23.252;2023-12-07T14:30:36;94252.53;;;-0.48;100.00
11339;BME280;5724;42.684;23.252;2023-12-07T14:33:25;94253.38;;;-0.34;100.00
11339;BME280;5724;42.684;23.252;2023-12-07T14:36:11;94234.59;;;-0.34;100.00
11339;BME280;5724;42.684;23.252;2023-12-07T14:38:58;94234.97;;;-0.41;100.00
11339;BME280;5724;42.684;23.252;2023-12-07T14:41:45;94251.81;;;-0.35;100.00
11339;BME280;5724;42.684;23.252;2023-12-07T14:44:32;94253.88;;;-0.32;100.00
11339;BME280;5724;42.684;23.252;2023-12-07T14:47:18;94260.06;;;-0.32;100.00
11339;BME280;5724;42.684;23.252;2023-12-07T14:50:05;94213.97;;;-0.90;100.00